Time;durP1;ratioP1;P1;durP2;ratioP2;P2;SDS_P1;SDS_P2;PMS_P1;PMS_P2;Temp;Humidity;BMP_temperature;BMP_pressure;BME280_temperature;BME280_humidity;BME280_pressure;Samples;Min_cycle;Max_cycle;Signal;HPM_P1;HPM_P2
2022/08/19 00:01:29;;;;;;;21.10;17.10;;;;;;;18.42;100.00;97592.57;1780106;80;21473;-91
2022/08/19 00:03:57;;;;;;;27.20;15.93;;;;;;;18.40;100.00;97589.95;1750838;80;21040;-86
2022/08/19 00:06:23;;;;;;;24.50;17.02;;;;;;;18.35;100.00;97591.53;1720509;82;20976;-91
2022/08/19 00:08:51;;;;;;;17.98;16.07;;;;;;;18.34;100.00;97590.73;1732621;81;21580;-87
2022/08/19 00:11:17;;;;;;;21.20;16.73;;;;;;;18.33;100.00;97589.13;1764662;81;21005;-91
2022/08/19 00:13:43;;;;;;;22.58;17.42;;;;;;;18.35;100.00;97588.78;1746716;81;21435;-86
2022/08/19 00:16:09;;;;;;;20.85;16.62;;;;;;;18.37;100.00;97596.09;1765992;80;21569;-86
2022/08/19 00:18:35;;;;;;;21.20;17.85;;;;;;;18.32;100.00;97591.08;1753723;80;20923;-87
2022/08/19 00:21:01;;;;;;;19.50;15.98;;;;;;;18.27;100.00;97586.38;1740624;82;21062;-91
2022/08/19 00:23:27;;;;;;;20.05;16.25;;;;;;;18.28;100.00;97591.52;1740384;82;21003;-92
2022/08/19 00:25:53;;;;;;;25.30;16.57;;;;;;;18.27;100.00;97586.38;1740840;81;21475;-87
2022/08/19 00:28:20;;;;;;;18.50;15.83;;;;;;;18.30;100.00;97583.77;1740724;82;21324;-89
2022/08/19 00:30:46;;;;;;;20.52;17.75;;;;;;;18.38;100.00;97582.06;1740726;82;21022;-91
2022/08/19 00:33:13;;;;;;;23.38;17.32;;;;;;;18.44;100.00;97578.52;1740465;82;21876;-87
2022/08/19 00:35:39;;;;;;;23.70;17.60;;;;;;;18.44;100.00;97584.00;1740625;82;21011;-86
2022/08/19 00:38:06;;;;;;;22.35;17.45;;;;;;;18.41;100.00;97584.12;1740467;82;21046;-89
2022/08/19 00:40:32;;;;;;;23.85;18.07;;;;;;;18.39;100.00;97585.61;1740939;81;21030;-87
2022/08/19 00:42:58;;;;;;;19.00;16.10;;;;;;;18.36;100.00;97582.16;1740424;82;20986;-86
2022/08/19 00:45:27;;;;;;;16.30;14.65;;;;;;;18.33;100.00;97577.59;1751022;81;21021;-90
2022/08/19 00:47:53;;;;;;;;;;;;;;;18.22;100.00;97579.18;1753344;82;21395;-87
2022/08/19 00:50:20;;;;;;;17.65;14.30;;;;;;;18.15;100.00;97578.13;1696122;83;20270;-87
2022/08/19 00:52:48;;;;;;;22.02;15.38;;;;;;;18.07;100.00;97574.92;1723297;81;21066;-86
2022/08/19 00:55:22;;;;;;;17.95;15.95;;;;;;;18.02;100.00;97578.66;1740315;81;21019;-91
2022/08/19 00:58:07;;;;;;;20.65;16.17;;;;;;;17.98;100.00;97577.18;1739825;81;21439;-91
2022/08/19 01:00:36;;;;;;;19.65;16.02;;;;;;;17.96;100.00;97560.84;1762443;80;21065;-90
2022/08/19 01:03:00;;;;;;;22.50;17.23;;;;;;;17.99;100.00;97562.33;1775543;80;21014;-86
2022/08/19 01:05:28;;;;;;;23.50;18.80;;;;;;;18.02;100.00;97554.78;1749176;81;20835;-91
2022/08/19 01:07:56;;;;;;;24.30;17.12;;;;;;;18.03;100.00;97554.22;1746534;81;20974;-87
2022/08/19 01:10:25;;;;;;;18.73;16.52;;;;;;;18.00;100.00;97552.16;1765970;80;20981;-90
2022/08/19 01:12:51;;;;;;;18.98;15.75;;;;;;;17.96;100.00;97549.88;1765299;80;21364;-87
2022/08/19 01:15:22;;;;;;;20.55;16.77;;;;;;;17.89;100.00;97543.58;1730509;82;21041;-91
2022/08/19 01:17:48;;;;;;;20.05;15.65;;;;;;;17.89;100.00;97553.74;1740598;81;21041;-90
2022/08/19 01:20:19;;;;;;;19.90;16.25;;;;;;;17.85;100.00;97547.32;1754519;81;21011;-91
2022/08/19 01:22:54;;;;;;;21.05;17.02;;;;;;;17.82;100.00;97549.38;1765728;80;21002;-90
2022/08/19 01:25:24;;;;;;;20.20;16.85;;;;;;;17.81;100.00;97547.78;1765966;80;20998;-86
2022/08/19 01:27:50;;;;;;;20.45;16.62;;;;;;;17.79;100.00;97543.22;1765439;81;20986;-91
2022/08/19 01:30:22;;;;;;;20.62;16.62;;;;;;;17.78;100.00;97539.67;1749641;80;21012;-86
2022/08/19 01:32:49;;;;;;;19.00;17.00;;;;;;;17.75;100.00;97528.80;1768095;80;21466;-91
2022/08/19 01:35:17;;;;;;;19.00;16.07;;;;;;;17.73;100.00;97535.77;1765978;81;21099;-88
2022/08/19 01:37:51;;;;;;;17.55;15.55;;;;;;;17.70;100.00;97531.77;1762448;80;21530;-91
2022/08/19 01:40:20;;;;;;;17.77;15.72;;;;;;;17.67;100.00;97539.25;1755247;81;21081;-90
2022/08/19 01:42:49;;;;;;;20.12;15.75;;;;;;;17.60;100.00;97538.98;1766008;80;20950;-91
2022/08/19 01:45:17;;;;;;;17.92;15.85;;;;;;;17.58;100.00;97544.58;1752271;81;21019;-86
2022/08/19 01:47:43;;;;;;;22.95;16.65;;;;;;;17.55;100.00;97543.89;1751002;82;20988;-87
2022/08/19 01:50:10;;;;;;;19.73;16.23;;;;;;;17.52;100.00;97545.91;1751020;81;20867;-86
2022/08/19 01:52:38;;;;;;;19.98;15.80;;;;;;;17.48;100.00;97537.02;1707763;81;21519;-91
2022/08/19 01:55:05;;;;;;;21.87;16.23;;;;;;;17.47;100.00;97538.72;1740947;82;20995;-87
2022/08/19 01:57:31;;;;;;;17.90;16.00;;;;;;;17.47;100.00;97532.67;1750887;81;20998;-90
2022/08/19 01:59:57;;;;;;;21.40;15.75;;;;;;;17.49;100.00;97535.07;1758548;80;21068;-86
2022/08/19 02:02:23;;;;;;;23.12;17.10;;;;;;;17.51;100.00;97533.36;1783854;80;20954;-86
2022/08/19 02:04:50;;;;;;;20.50;16.90;;;;;;;17.49;100.00;97528.22;1732939;81;21035;-87
2022/08/19 02:07:25;;;;;;;19.37;16.25;;;;;;;17.47;100.00;97525.83;1740675;81;21043;-90
2022/08/19 02:09:48;;;;;;;22.15;15.32;;;;;;;17.48;100.00;97520.58;1742671;81;21053;-85
2022/08/19 02:12:14;;;;;;;23.70;17.05;;;;;;;17.45;100.00;97522.63;1765776;81;20922;-90
2022/08/19 02:14:40;;;;;;;21.68;18.25;;;;;;;17.44;100.00;97519.66;1729092;80;20979;-87
2022/08/19 02:17:06;;;;;;;21.65;16.48;;;;;;;17.44;100.00;97517.49;1740642;82;21022;-87
2022/08/19 02:19:32;;;;;;;21.75;16.62;;;;;;;17.46;100.00;97522.06;1754298;81;21575;-86
2022/08/19 02:21:59;;;;;;;18.32;16.30;;;;;;;17.50;100.00;97521.61;1766054;80;21030;-91
2022/08/19 02:24:26;;;;;;;19.15;16.07;;;;;;;17.49;100.00;97518.06;1747078;80;21022;-86
2022/08/19 02:26:52;;;;;;;21.37;15.78;;;;;;;17.47;100.00;97519.55;1720519;82;21018;-86
2022/08/19 02:29:18;;;;;;;19.30;15.08;;;;;;;17.45;100.00;97514.98;1741847;81;21038;-86
2022/08/19 02:31:45;;;;;;;18.92;15.88;;;;;;;17.39;100.00;97512.21;1742118;80;20957;-91
2022/08/19 02:34:11;;;;;;;22.80;15.85;;;;;;;17.35;100.00;97513.47;1726173;81;20983;-86
2022/08/19 02:36:37;;;;;;;25.45;16.42;;;;;;;17.30;100.00;97519.13;1741527;80;21032;-87
2022/08/19 02:39:03;;;;;;;19.15;16.45;;;;;;;17.29;100.00;97519.48;1748114;81;20862;-91
2022/08/19 02:41:31;;;;;;;20.12;16.23;;;;;;;17.29;100.00;97528.48;1742067;81;21003;-90
2022/08/19 02:43:58;;;;;;;18.55;15.83;;;;;;;17.27;100.00;97529.40;1748206;81;20916;-89
2022/08/19 02:46:27;;;;;;;17.70;15.13;;;;;;;17.27;100.00;97528.60;1741571;82;21069;-86
2022/08/19 02:48:56;;;;;;;18.50;15.15;;;;;;;17.26;100.00;97529.71;1740833;81;21138;-86
2022/08/19 02:51:26;;;;;;;21.12;14.03;;;;;;;17.25;100.00;97535.75;1740664;82;20994;-90
2022/08/19 02:53:52;;;;;;;19.48;15.40;;;;;;;17.24;100.00;97538.27;1729225;82;21022;-86
2022/08/19 02:56:19;;;;;;;19.40;15.30;;;;;;;17.19;100.00;97533.01;1751126;81;20942;-87
2022/08/19 02:58:45;;;;;;;21.45;15.75;;;;;;;17.16;100.00;97527.61;1740436;81;21026;-90
2022/08/19 03:01:13;;;;;;;20.20;15.55;;;;;;;17.16;100.00;97527.61;1776506;80;21399;-90
2022/08/19 03:03:39;;;;;;;21.00;16.17;;;;;;;17.17;100.00;97530.58;1737243;81;21015;-90
2022/08/19 03:06:10;;;;;;;19.50;15.72;;;;;;;17.13;100.00;97522.02;1730985;81;20946;-90
2022/08/19 03:08:36;;;;;;;17.80;15.70;;;;;;;17.09;100.00;97521.06;1742466;80;20920;-91
2022/08/19 03:11:02;;;;;;;20.80;16.30;;;;;;;17.09;100.00;97521.89;1747182;81;20986;-90
2022/08/19 03:13:29;;;;;;;19.17;15.98;;;;;;;17.09;100.00;97520.52;1754071;81;21411;-87
2022/08/19 03:15:55;;;;;;;21.45;15.95;;;;;;;17.09;100.00;97517.79;1740854;80;20986;-91
2022/08/19 03:18:21;;;;;;;20.75;15.35;;;;;;;17.10;100.00;97532.27;1733540;81;20962;-91
2022/08/19 03:20:49;;;;;;;24.45;16.15;;;;;;;17.09;100.00;97533.38;1765205;81;20887;-90
2022/08/19 03:23:16;;;;;;;18.82;15.75;;;;;;;17.10;100.00;97541.28;1765927;80;21410;-86
2022/08/19 03:25:47;;;;;;;22.20;15.75;;;;;;;17.10;100.00;97538.55;1748464;81;21702;-86
2022/08/19 03:28:14;;;;;;;18.65;14.18;;;;;;;17.07;100.00;97528.81;1740695;82;20957;-86
2022/08/19 03:30:41;;;;;;;21.70;16.90;;;;;;;17.02;100.00;97525.73;1740925;82;20968;-91
2022/08/19 03:33:08;;;;;;;19.32;15.70;;;;;;;16.99;100.00;97527.74;1750953;81;21029;-91
2022/08/19 03:35:36;;;;;;;24.30;15.53;;;;;;;16.98;100.00;97528.88;1738905;81;20981;-90
2022/08/19 03:38:05;;;;;;;25.88;16.15;;;;;;;16.96;100.00;97522.95;1731786;81;21298;-86
2022/08/19 03:40:34;;;;;;;20.70;14.35;;;;;;;16.97;100.00;97527.28;1755198;81;20982;-86
2022/08/19 03:43:00;;;;;;;27.95;16.40;;;;;;;16.95;100.00;97529.55;1758291;81;20998;-86
2022/08/19 03:45:27;;;;;;;22.20;16.52;;;;;;;16.98;100.00;97533.55;1758667;81;20934;-86
2022/08/19 03:47:53;;;;;;;20.08;15.58;;;;;;;17.02;100.00;97530.41;1766136;81;20938;-86
2022/08/19 03:50:19;;;;;;;20.57;15.13;;;;;;;17.05;100.00;97529.73;1766224;81;21676;-86
2022/08/19 03:52:50;;;;;;;20.23;16.30;;;;;;;17.07;100.00;97520.03;1766051;81;20871;-91
2022/08/19 03:55:18;;;;;;;28.87;17.40;;;;;;;17.10;100.00;97519.95;1740932;81;21443;-86
2022/08/19 03:57:45;;;;;;;17.15;15.30;;;;;;;17.12;100.00;97521.78;1732321;81;21426;-86
2022/08/19 04:00:12;;;;;;;17.85;14.45;;;;;;;17.13;100.00;97514.60;1761751;79;20923;-86
2022/08/19 04:02:38;;;;;;;22.82;15.85;;;;;;;17.10;100.00;97523.49;1797022;79;21514;-91
2022/08/19 04:05:07;;;;;;;19.75;14.78;;;;;;;17.11;100.00;97517.45;1750390;81;20966;-86
2022/08/19 04:07:34;;;;;;;21.77;15.30;;;;;;;17.12;100.00;97524.52;1745826;81;21027;-90
2022/08/19 04:10:00;;;;;;;19.12;15.83;;;;;;;17.12;100.00;97524.52;1738897;81;20883;-86
2022/08/19 04:12:26;;;;;;;21.37;15.80;;;;;;;17.12;100.00;97534.11;1746357;81;20982;-87
2022/08/19 04:14:53;;;;;;;20.70;15.53;;;;;;;17.10;100.00;97530.34;1748042;81;21128;-86
2022/08/19 04:17:19;;;;;;;20.92;14.03;;;;;;;17.10;100.00;97526.23;1745848;81;21412;-86
2022/08/19 04:19:44;;;;;;;17.70;15.48;;;;;;;17.09;100.00;97523.27;1752568;81;20867;-86
2022/08/19 04:22:11;;;;;;;17.80;15.90;;;;;;;17.10;100.00;97522.13;1761387;81;20867;-87
2022/08/19 04:24:37;;;;;;;24.57;15.25;;;;;;;17.13;100.00;97522.02;1761307;80;20976;-90
2022/08/19 04:27:05;;;;;;;20.27;14.50;;;;;;;17.15;100.00;97529.31;1765733;80;21967;-87
2022/08/19 04:29:31;;;;;;;18.48;14.45;;;;;;;17.19;100.00;97539.84;1748564;81;20935;-90
2022/08/19 04:31:58;;;;;;;19.80;15.38;;;;;;;17.21;100.00;97545.78;1740482;82;21644;-86
2022/08/19 04:34:28;;;;;;;23.92;18.10;;;;;;;17.30;100.00;97548.45;1746097;81;21006;-90
2022/08/19 04:36:55;;;;;;;17.85;14.13;;;;;;;17.39;100.00;97550.55;1763228;81;21017;-91
2022/08/19 04:42:38;;;;;;;21.23;15.43;;;;;;;17.49;100.00;97553.67;1747370;81;21431;-87
2022/08/19 04:44:36;;;;;;;22.70;14.35;;;;;;;17.68;100.00;97549.06;1763505;81;21377;-86
2022/08/19 04:47:05;;;;;;;21.20;13.72;;;;;;;17.90;100.00;97556.71;1751577;80;20834;-87
2022/08/19 04:49:30;;;;;;;18.37;14.83;;;;;;;18.09;100.00;97558.92;1744733;80;20967;-87
2022/08/19 04:51:56;;;;;;;16.05;14.43;;;;;;;18.23;100.00;97556.67;1741530;82;20996;-87
2022/08/19 04:54:24;;;;;;;23.15;14.45;;;;;;;18.45;100.00;97558.16;1739846;81;21644;-86
2022/08/19 04:56:52;;;;;;;19.23;15.45;;;;;;;18.56;100.00;97565.62;1736450;81;21386;-86
2022/08/19 04:59:19;;;;;;;20.43;14.35;;;;;;;18.71;100.00;97568.25;1729751;81;21013;-86
2022/08/19 05:01:49;;;;;;;19.48;14.45;;;;;;;18.82;100.00;97568.62;1759267;80;21418;-87
2022/08/19 05:04:14;;;;;;;15.88;14.20;;;;;;;18.89;100.00;97561.98;1745813;81;21217;-87
2022/08/19 05:06:39;;;;;;;22.67;13.28;;;;;;;18.99;100.00;97564.25;1732705;82;20878;-89
2022/08/19 05:09:06;;;;;;;17.98;13.28;;;;;;;19.22;100.00;97569.23;1738271;81;20886;-90
2022/08/19 05:11:34;;;;;;;21.00;14.65;;;;;;;19.43;100.00;97569.87;1756370;81;21593;-90
2022/08/19 05:14:01;;;;;;;17.45;12.88;;;;;;;19.57;100.00;97561.25;1765868;80;26460;-87
2022/08/19 05:16:27;;;;;;;19.90;13.50;;;;;;;19.65;100.00;97557.55;1750563;80;21835;-86
2022/08/19 05:24:25;;;;;;;20.37;13.00;;;;;;;19.96;100.00;97561.77;1732627;81;21019;-87
2022/08/19 05:26:52;;;;;;;16.57;12.25;;;;;;;20.08;100.00;97561.47;1742464;82;20932;-87
2022/08/19 05:29:21;;;;;;;19.80;12.58;;;;;;;20.11;100.00;97562.16;1746320;81;21107;-91
2022/08/19 05:31:49;;;;;;;15.50;12.43;;;;;;;20.20;100.00;97564.95;1766394;81;21402;-87
2022/08/19 05:34:16;;;;;;;15.43;13.08;;;;;;;20.33;100.00;97568.41;1758067;81;21337;-86
2022/08/19 05:36:44;;;;;;;18.95;12.18;;;;;;;20.47;100.00;97570.77;1747909;81;21018;-90
2022/08/19 05:39:19;;;;;;;19.80;12.33;;;;;;;20.60;100.00;97573.67;1743388;81;21436;-91
2022/08/19 05:41:49;;;;;;;14.90;11.95;;;;;;;20.76;100.00;97567.55;1743061;82;21046;-92
2022/08/19 05:44:16;;;;;;;13.93;12.07;;;;;;;20.93;100.00;97564.98;1749509;82;21537;-91
2022/08/19 05:46:48;;;;;;;16.02;13.08;;;;;;;21.12;100.00;97563.67;1735432;82;21439;-90
2022/08/19 05:49:15;;;;;;;16.27;12.13;;;;;;;21.29;100.00;97563.88;1740243;81;20967;-86
2022/08/19 05:51:42;;;;;;;15.78;12.50;;;;;;;21.44;100.00;97564.16;1757374;79;36738;-88
2022/08/19 05:54:08;;;;;;;22.80;11.68;;;;;;;21.62;100.00;97564.77;1743999;81;21050;-91
2022/08/19 05:56:37;;;;;;;16.45;12.05;;;;;;;21.77;99.56;97570.55;1736211;81;21008;-86
2022/08/19 05:59:03;;;;;;;16.00;13.22;;;;;;;21.90;98.39;97573.38;1750433;81;21164;-89
2022/08/19 06:01:29;;;;;;;17.10;12.58;;;;;;;22.02;96.82;97578.73;1767175;80;21076;-87
2022/08/19 06:03:56;;;;;;;17.12;11.97;;;;;;;22.12;96.45;97578.16;1747987;79;20871;-91
2022/08/19 06:06:22;;;;;;;18.02;12.35;;;;;;;22.24;95.26;97574.45;1734110;81;21415;-90
2022/08/19 06:08:50;;;;;;;19.07;13.40;;;;;;;22.40;96.10;97577.09;1745108;81;21141;-86
2022/08/19 06:11:20;;;;;;;23.20;14.23;;;;;;;22.53;95.83;97566.86;1748006;81;21069;-87
2022/08/19 06:13:50;;;;;;;20.25;14.45;;;;;;;22.65;94.67;97572.80;1722705;79;21056;-87
2022/08/19 06:16:23;;;;;;;15.13;11.15;;;;;;;22.79;94.53;97568.06;1734778;79;21005;-91
2022/08/19 06:18:52;;;;;;;17.52;13.10;;;;;;;22.98;93.48;97572.72;1746150;81;21208;-90
2022/08/19 06:21:20;;;;;;;16.75;11.35;;;;;;;23.09;92.85;97577.84;1752484;80;21052;-87
2022/08/19 06:23:47;;;;;;;17.98;12.28;;;;;;;23.26;91.86;97574.53;1748216;80;21015;-91
2022/08/19 06:26:14;;;;;;;16.85;12.75;;;;;;;23.40;90.65;97578.06;1745450;80;22288;-91
2022/08/19 06:28:42;;;;;;;16.50;11.78;;;;;;;23.54;91.08;97585.75;1745634;81;21132;-87
2022/08/19 06:31:09;;;;;;;14.17;11.77;;;;;;;23.73;91.22;97590.36;1712890;81;21189;-88
2022/08/19 06:33:37;;;;;;;13.38;11.60;;;;;;;23.87;90.03;97596.88;1738938;81;21047;-90
2022/08/19 06:36:04;;;;;;;14.77;10.73;;;;;;;24.06;88.80;97599.25;1740091;81;21057;-90
2022/08/19 06:38:30;;;;;;;13.40;11.50;;;;;;;24.18;88.40;97599.80;1748790;79;21044;-91
2022/08/19 06:41:03;;;;;;;15.40;11.30;;;;;;;24.34;85.90;97604.31;1743715;81;21448;-86
2022/08/19 06:43:29;;;;;;;15.38;11.25;;;;;;;24.50;84.58;97607.64;1745745;81;21135;-86
2022/08/19 06:45:55;;;;;;;12.60;10.35;;;;;;;24.75;84.94;97605.89;1760101;80;20990;-91
2022/08/19 06:48:21;;;;;;;17.02;11.50;;;;;;;25.05;82.91;97617.45;1663299;83;21475;-88
2022/08/19 06:50:49;;;;;;;17.55;12.35;;;;;;;25.31;82.21;97614.47;1766090;79;20871;-91
2022/08/19 06:53:15;;;;;;;15.87;10.20;;;;;;;25.56;81.54;97619.37;1768562;79;21073;-91
2022/08/19 06:55:41;;;;;;;14.78;11.35;;;;;;;25.72;81.45;97615.72;1745469;81;23115;-87
2022/08/19 06:58:07;;;;;;;15.80;10.28;;;;;;;25.98;78.20;97615.20;1756004;81;20982;-91
2022/08/19 07:00:33;;;;;;;16.52;11.20;;;;;;;26.13;78.59;97617.64;1746508;80;20910;-90
2022/08/19 07:03:00;;;;;;;22.58;11.48;;;;;;;26.29;77.24;97615.11;1737542;80;21060;-91
2022/08/19 07:05:26;;;;;;;17.55;11.33;;;;;;;26.39;78.71;97609.60;1743156;81;21025;-89
2022/08/19 07:07:52;;;;;;;14.73;11.25;;;;;;;26.67;77.60;97610.85;1737798;81;21178;-91
2022/08/19 07:10:19;;;;;;;20.77;11.10;;;;;;;26.96;78.25;97615.21;1743095;81;21370;-87
2022/08/19 07:12:44;;;;;;;14.35;11.20;;;;;;;27.37;77.06;97610.64;1736932;81;21683;-87
2022/08/19 07:15:12;;;;;;;14.68;10.70;;;;;;;27.60;74.10;97619.90;1745310;80;20917;-91
2022/08/19 07:17:39;;;;;;;12.65;9.78;;;;;;;28.10;76.13;97615.56;1746388;80;21279;-87
2022/08/19 07:20:07;;;;;;;11.70;10.48;;;;;;;28.48;75.64;97623.56;1749773;81;21537;-91
2022/08/19 07:22:35;;;;;;;13.25;9.80;;;;;;;28.95;74.17;97611.48;1740063;81;21045;-88
2022/08/19 07:25:03;;;;;;;15.23;9.03;;;;;;;29.44;72.87;97620.59;1750204;81;21151;-88
2022/08/19 07:27:29;;;;;;;13.13;9.28;;;;;;;29.87;68.90;97622.34;1760954;79;21543;-88
2022/08/19 07:29:55;;;;;;;13.22;9.10;;;;;;;29.92;69.06;97617.70;1691447;83;21575;-87
2022/08/19 07:32:21;;;;;;;14.38;9.45;;;;;;;30.26;67.99;97609.91;1696975;84;21046;-88
2022/08/19 07:34:47;;;;;;;11.33;9.08;;;;;;;30.74;67.62;97606.02;1752960;80;20937;-90
2022/08/19 07:37:13;;;;;;;14.80;8.68;;;;;;;31.34;63.49;97609.83;1747053;81;21036;-88
2022/08/19 07:39:39;;;;;;;9.85;8.10;;;;;;;31.34;63.49;97609.83;1739512;80;20996;-88
2022/08/19 07:42:08;;;;;;;10.50;7.95;;;;;;;31.56;62.46;97618.64;1748738;81;21521;-90
2022/08/19 07:44:34;;;;;;;11.53;9.35;;;;;;;31.32;57.77;97617.27;1715725;81;21454;-88
2022/08/19 07:47:01;;;;;;;11.22;8.68;;;;;;;31.86;61.62;97619.85;1743962;81;21453;-88
2022/08/19 07:49:27;;;;;;;13.22;8.75;;;;;;;32.27;61.24;97620.80;1688548;84;21488;-88
2022/08/19 07:52:01;;;;;;;11.12;7.67;;;;;;;32.71;59.87;97622.05;1705114;83;21057;-91
2022/08/19 07:54:30;;;;;;;17.42;8.40;;;;;;;33.13;54.91;97617.43;1667999;85;21130;-88
2022/08/19 07:56:56;;;;;;;12.68;7.70;;;;;;;32.66;55.76;97618.38;1670314;85;21456;-91
2022/08/19 07:59:24;;;;;;;9.40;8.23;;;;;;;32.38;58.25;97621.19;1716042;83;21413;-90
2022/08/19 08:01:50;;;;;;;11.22;8.53;;;;;;;32.59;58.69;97627.73;1693215;83;21012;-91
2022/08/19 08:09:46;;;;;;;10.32;8.03;;;;;;;32.68;57.77;97641.16;1737389;81;21488;-90
2022/08/19 08:12:16;;;;;;;8.30;7.50;;;;;;;33.24;56.54;97639.61;1735960;81;21191;-91
2022/08/19 08:14:49;;;;;;;11.68;7.85;;;;;;;33.70;55.12;97641.85;1738586;79;21022;-91
2022/08/19 08:17:16;;;;;;;12.23;7.90;;;;;;;34.04;54.03;97643.52;1745968;80;21069;-88
2022/08/19 08:19:43;;;;;;;11.63;7.83;;;;;;;34.68;51.49;97650.05;1746683;81;27112;-90
2022/08/19 08:24:58;;;;;;;10.50;7.97;;;;;;;34.75;48.21;97650.45;1752854;81;21061;-91
2022/08/19 08:27:24;;;;;;;10.65;8.30;;;;;;;34.43;47.51;97643.78;1745564;79;21088;-88
2022/08/19 08:29:50;;;;;;;10.15;7.78;;;;;;;34.45;46.68;97637.11;1725720;81;20974;-88
2022/08/19 08:32:16;;;;;;;10.25;7.40;;;;;;;35.18;47.66;97636.42;1761864;81;20857;-89
2022/08/19 08:34:42;;;;;;;10.03;7.78;;;;;;;35.68;43.35;97636.13;1735463;80;21176;-88
2022/08/19 08:37:08;;;;;;;9.95;7.60;;;;;;;35.74;44.07;97637.13;1750399;81;21691;-87
2022/08/19 08:39:34;;;;;;;10.38;7.75;;;;;;;36.18;43.72;97632.93;1736490;79;20968;-91
2022/08/19 08:42:20;;;;;;;11.70;8.78;;;;;;;36.77;43.85;97633.89;1744712;80;21017;-91
2022/08/19 08:44:59;;;;;;;12.60;8.43;;;;;;;37.31;42.78;97626.86;1692305;81;21089;-90
2022/08/19 08:47:28;;;;;;;9.55;7.33;;;;;;;37.53;40.83;97629.72;1729339;81;21715;-91
2022/08/19 08:50:03;;;;;;;10.90;7.20;;;;;;;37.36;40.13;97622.02;1742027;81;21041;-91
2022/08/19 08:52:35;;;;;;;10.88;6.97;;;;;;;37.80;40.12;97619.70;1755243;79;20954;-91
2022/08/19 08:55:02;;;;;;;9.75;7.12;;;;;;;38.23;39.38;97628.46;1734942;80;21010;-91
2022/08/19 08:57:48;;;;;;;10.93;7.25;;;;;;;38.42;38.68;97628.41;1749000;81;20974;-90
2022/08/19 09:00:18;;;;;;;9.68;7.05;;;;;;;38.90;37.28;97626.52;1751580;81;21039;-89
2022/08/19 09:02:44;;;;;;;10.90;7.20;;;;;;;38.37;37.93;97620.73;1745279;81;20974;-91
2022/08/19 09:05:12;;;;;;;9.85;7.78;;;;;;;37.39;38.85;97623.89;1744570;79;21093;-89
2022/08/19 09:08:02;;;;;;;9.88;6.75;;;;;;;36.65;39.65;97627.86;1745633;80;20989;-92
2022/08/19 09:10:33;;;;;;;12.03;7.58;;;;;;;36.63;39.33;97631.78;1706469;82;22274;-91
2022/08/19 09:13:05;;;;;;;8.90;7.47;;;;;;;36.12;40.31;97626.47;1741160;81;21171;-91
2022/08/19 09:15:37;;;;;;;9.75;7.28;;;;;;;35.85;40.91;97629.07;1755880;79;21021;-89
2022/08/19 09:18:03;;;;;;;10.13;7.30;;;;;;;35.20;40.81;97619.85;1742011;81;20998;-90
2022/08/19 09:20:30;;;;;;;13.68;8.03;;;;;;;35.52;41.23;97620.97;1743327;81;21028;-91
2022/08/19 09:22:58;;;;;;;11.85;7.30;;;;;;;36.06;40.63;97619.84;1745945;81;21132;-91
2022/08/19 09:25:24;;;;;;;13.30;6.97;;;;;;;36.37;40.86;97625.55;1748504;81;21152;-90
2022/08/19 09:27:53;;;;;;;9.03;7.08;;;;;;;36.98;39.84;97618.92;1748450;79;21062;-89
2022/08/19 09:30:23;;;;;;;11.18;7.28;;;;;;;37.15;39.22;97625.08;1682586;82;21441;-91
2022/08/19 09:32:52;;;;;;;11.53;7.22;;;;;;;37.61;38.92;97623.13;1749281;81;20975;-89
2022/08/19 09:35:17;;;;;;;12.95;7.70;;;;;;;37.30;38.04;97621.03;1728664;81;20981;-89
2022/08/19 09:37:43;;;;;;;12.63;8.13;;;;;;;36.46;38.54;97616.97;1720638;81;20921;-91
2022/08/19 09:40:11;;;;;;;11.95;7.30;;;;;;;35.67;40.64;97617.03;1774357;79;21160;-88
2022/08/19 09:42:36;;;;;;;10.63;7.67;;;;;;;35.56;40.75;97609.59;1774349;80;21119;-89
2022/08/19 09:45:04;;;;;;;9.10;8.20;;;;;;;35.17;41.25;97601.84;1747168;81;20843;-91
2022/08/19 09:47:30;;;;;;;9.73;7.85;;;;;;;34.82;42.05;97605.20;1743454;81;21002;-91
2022/08/19 09:49:57;;;;;;;13.15;8.35;;;;;;;34.44;43.30;97599.57;1750646;81;21142;-91
2022/08/19 09:52:23;;;;;;;16.13;8.87;;;;;;;34.16;43.79;97601.20;1771215;79;21033;-88
2022/08/19 09:54:54;;;;;;;11.40;7.85;;;;;;;33.96;44.17;97598.59;1739143;81;21599;-88
2022/08/19 09:57:20;;;;;;;15.68;8.58;;;;;;;33.89;44.33;97599.58;1738410;81;21508;-87
2022/08/19 09:59:45;;;;;;;11.90;8.28;;;;;;;33.89;44.39;97597.38;1750018;81;21659;-88
2022/08/19 10:02:12;;;;;;;11.75;8.10;;;;;;;33.78;44.82;97596.27;1759346;80;21823;-91
2022/08/19 10:07:23;;;;;;;10.35;8.30;;;;;;;33.26;44.72;97602.87;1746751;81;21092;-88
2022/08/19 10:09:49;;;;;;;12.10;8.33;;;;;;;32.99;46.06;97607.98;1730533;81;20887;-88
2022/08/19 10:12:15;;;;;;;8.53;7.62;;;;;;;32.87;46.14;97602.45;1754027;81;20855;-89
2022/08/19 10:14:41;;;;;;;11.78;8.05;;;;;;;32.86;46.20;97600.87;1752481;81;21792;-88
2022/08/19 10:17:07;;;;;;;11.57;8.33;;;;;;;33.26;46.09;97604.27;1750570;79;20992;-88
2022/08/19 10:19:35;;;;;;;13.93;7.70;;;;;;;33.45;46.52;97599.00;1744579;81;20969;-88
2022/08/19 10:22:04;;;;;;;14.43;8.60;;;;;;;33.66;47.16;97595.59;1743677;80;20970;-91
2022/08/19 10:24:31;;;;;;;15.93;8.18;;;;;;;33.52;47.49;97599.59;1686399;84;21072;-87
2022/08/19 10:26:57;;;;;;;13.20;7.87;;;;;;;33.56;47.52;97589.66;1751234;81;21077;-91
2022/08/19 10:29:23;;;;;;;13.30;7.55;;;;;;;33.53;46.94;97597.58;1752432;79;20977;-89
2022/08/19 10:31:49;;;;;;;11.57;6.83;;;;;;;33.66;46.82;97597.78;1742596;81;21013;-88
2022/08/19 10:34:15;;;;;;;9.55;5.70;;;;;;;33.81;46.64;97598.17;1743860;81;20970;-91
2022/08/19 10:36:41;;;;;;;11.53;5.80;;;;;;;33.81;44.09;97597.39;1742741;81;20953;-88
2022/08/19 10:39:08;;;;;;;6.72;4.92;;;;;;;33.71;42.66;97597.86;1755592;81;21641;-90
2022/08/19 10:41:36;;;;;;;17.00;5.70;;;;;;;33.59;38.12;97602.22;1791640;79;21018;-91
2022/08/19 10:44:05;;;;;;;;;;;;;;;33.70;40.62;97599.72;1753280;79;21050;-88
2022/08/19 10:46:32;;;;;;;8.05;5.70;;;;;;;33.63;40.74;97594.47;1759425;81;20267;-88
2022/08/19 10:49:01;;;;;;;10.40;5.83;;;;;;;33.70;40.93;97595.50;1754090;81;20994;-90
2022/08/19 10:54:11;;;;;;;8.45;5.35;;;;;;;33.70;39.92;97587.08;1754533;80;21478;-90
2022/08/19 10:56:52;;;;;;;7.75;5.72;;;;;;;33.59;39.41;97585.98;1753939;81;21567;-90
2022/08/19 10:59:28;;;;;;;10.98;5.55;;;;;;;33.44;38.43;97573.56;1739746;81;21026;-88
2022/08/19 11:01:59;;;;;;;17.45;13.38;;;;;;;33.18;39.50;97568.41;1743532;81;21466;-91
2022/08/19 11:04:25;;;;;;;13.38;7.00;;;;;;;33.24;40.50;97558.99;1738229;79;21763;-89
2022/08/19 11:06:51;;;;;;;11.93;6.45;;;;;;;33.23;40.51;97555.23;1753696;81;22404;-91
2022/08/19 11:09:21;;;;;;;11.53;6.08;;;;;;;33.28;40.89;97552.68;1681784;84;20992;-88
2022/08/19 11:11:47;;;;;;;13.60;6.50;;;;;;;33.35;39.71;97552.49;1678830;84;21049;-88
2022/08/19 11:14:15;;;;;;;10.38;5.85;;;;;;;33.03;40.13;97549.13;1675845;82;21057;-90
2022/08/19 11:16:42;;;;;;;;;;;;;;;33.09;40.49;97541.77;1692790;82;21155;-90
2022/08/19 11:19:09;;;;;;;12.33;6.12;;;;;;;32.98;39.41;97544.04;1678988;84;20181;-90
2022/08/19 11:21:39;;;;;;;9.00;5.80;;;;;;;33.06;40.74;97537.63;1693034;84;21146;-88
2022/08/19 11:24:13;;;;;;;9.88;5.55;;;;;;;32.99;40.77;97547.05;1672769;84;21564;-91
2022/08/19 11:26:39;;;;;;;11.25;6.37;;;;;;;33.02;40.47;97539.14;1734472;81;20970;-91
2022/08/19 11:29:06;;;;;;;7.80;5.72;;;;;;;33.12;40.15;97544.30;1756966;79;21797;-88
2022/08/19 11:31:35;;;;;;;28.50;7.12;;;;;;;33.03;40.84;97542.11;1736934;81;21100;-86
2022/08/19 11:34:03;;;;;;;13.10;6.10;;;;;;;33.10;40.70;97534.13;1684428;84;20992;-85
2022/08/19 11:36:29;;;;;;;9.35;5.47;;;;;;;33.29;40.37;97532.41;1691933;84;21079;-86
2022/08/19 11:38:55;;;;;;;10.60;6.00;;;;;;;33.41;40.23;97533.09;1687756;83;21581;-86
2022/08/19 11:41:23;;;;;;;10.53;5.83;;;;;;;33.50;41.65;97532.45;1698581;82;21989;-86